Minneapolis, MN (55415)

5:03 PM CST on November 15, 2019 (GMT -0600)
Minneapolis, Seward | | Change Station

Elev 855 ft 44.96 °N, 93.24 °W | Updated 24 seconds ago

Clear
Clear
36.1 °F
Feels Like 36 °F
N
0
Wind Variable Wind from NE
Gusts 0.0 mph

Today
High -- | Low -- °F
--% Chance of Precip.
Yesterday
High -- | Low -- °F
Precip. -- in
Pressure 30.34 in
Visibility 10.0 miles
Clouds Few 1800 ft
Few 18000 ft
Scattered Clouds 25000 ft
Windchill 36 °F
Dew Point 18 °F
Humidity 47%
Rainfall 0.05 in
Snow Depth Not available.
7:10 AM 4:44 PM
Waning Gibbous, 88% visible
METAR KMSP 152253Z 09007KT 10SM FEW018 FEW180 SCT250 03/M05 A3031 RMK AO2 SLP273 T00281050
Pressure 30.34 in
Visibility 10.0 miles
Clouds Few 1800 ft
Few 18000 ft
Scattered Clouds 25000 ft
Windchill 36 °F
Dew Point 18 °F
Humidity 47%
Rainfall 0.05 in
Snow Depth Not available.
7:10 AM 4:44 PM
Waning Gibbous, 88% visible
METAR KMSP 152253Z 09007KT 10SM FEW018 FEW180 SCT250 03/M05 A3031 RMK AO2 SLP273 T00281050

Get Severe Weather Alerts

Thanks for signing up!

Be on the lookout for a verification email in your inbox.

You'll start receiving the daily forecast at 6 AM.

×

10-Day Weather Forecast

Almanac

Astronomy

Nov. 15, 2019 Rise Set
Actual Time
Civil Twilight
Nautical Twilight
Astronomical Twilight
Moon
Length of Visible Light
Length of Day
Tomorrow will be .
, % of the Moon is Illuminated

Today's Extremes

State Highs State Lows

Community

WunderPhotos

Category 6

Welcome to Category 6. This is the collective home for Weather Underground's featured writeups by Dr. Jeff Masters (right), Bob Henson (left), Chris Burt, and other regular contributors.

Nearby

Air Quality

  Air Quality AQ Index Pollutant
Not available.

Snow Depth

Station Depth Elevation

Earthquake Activity

City Distance Mag. Time & Date
Minimum magnitude displayed is 2.5.

Coastal Water Temperatures

Place Temperature

Stations

Nearby Weather Stations

Station Location Temp. Windchill Dew Point Humidity Wind Precip. Elev Updated Type
                   

Watches & Warnings

There are currently no watches in effect.